createdAt,value
2018-09-02T00:01:27.120Z,4.40
2018-09-02T00:03:55.383Z,4.17
2018-09-02T00:06:23.645Z,4.90
2018-09-02T00:08:51.716Z,4.13
2018-09-02T00:11:20.194Z,4.03
2018-09-02T00:13:48.518Z,4.93
2018-09-02T00:16:16.678Z,5.07
2018-09-02T00:18:45.869Z,4.93
2018-09-02T00:21:14.397Z,5.40
2018-09-02T00:23:43.171Z,5.40
2018-09-02T00:26:11.526Z,5.50
2018-09-02T00:28:41.532Z,5.60
2018-09-02T00:31:10.601Z,5.00
2018-09-02T00:33:39.126Z,6.10
2018-09-02T00:36:11.898Z,5.80
2018-09-02T00:38:40.281Z,5.67
2018-09-02T00:41:08.349Z,5.47
2018-09-02T00:43:36.430Z,6.23
2018-09-02T00:46:04.874Z,6.00
2018-09-02T00:48:33.205Z,5.87
2018-09-02T00:51:01.523Z,6.37
2018-09-02T00:53:29.617Z,5.83
2018-09-02T00:55:58.441Z,5.80
2018-09-02T00:58:26.768Z,5.70
2018-09-02T01:00:54.862Z,6.27
2018-09-02T01:03:23.666Z,5.90
2018-09-02T01:05:52.676Z,6.00
2018-09-02T01:08:21.161Z,5.63
2018-09-02T01:10:50.291Z,5.83
2018-09-02T01:13:19.145Z,5.47
2018-09-02T01:15:48.029Z,5.87
2018-09-02T01:18:18.219Z,5.80
2018-09-02T01:20:47.585Z,6.47
2018-09-02T01:23:16.566Z,5.70
2018-09-02T01:25:44.693Z,5.27
2018-09-02T01:28:13.257Z,5.70
2018-09-02T01:30:42.383Z,5.67
2018-09-02T01:33:10.497Z,5.20
2018-09-02T01:35:39.164Z,5.80
2018-09-02T01:38:07.677Z,5.77
2018-09-02T01:40:36.397Z,6.60
2018-09-02T01:43:04.987Z,5.57
2018-09-02T01:45:34.325Z,6.97
2018-09-02T01:48:03.335Z,6.90
2018-09-02T01:50:32.114Z,7.03
2018-09-02T01:53:00.701Z,6.70
2018-09-02T01:55:29.254Z,6.73
2018-09-02T01:57:58.193Z,7.17
2018-09-02T02:00:27.381Z,6.57
2018-09-02T02:02:55.632Z,6.83
2018-09-02T02:05:31.202Z,6.37
2018-09-02T02:07:59.853Z,6.73
2018-09-02T02:10:29.309Z,6.30
2018-09-02T02:12:58.181Z,7.17
2018-09-02T02:15:27.299Z,7.07
2018-09-02T02:17:55.581Z,6.83
2018-09-02T02:20:24.043Z,6.37
2018-09-02T02:22:53.849Z,5.97
2018-09-02T02:25:22.429Z,6.80
2018-09-02T02:27:50.622Z,6.73
2018-09-02T02:30:19.109Z,6.83
2018-09-02T02:32:48.078Z,7.83
2018-09-02T02:35:17.039Z,7.90
2018-09-02T02:37:45.096Z,8.40
2018-09-02T02:40:13.162Z,7.90
2018-09-02T02:42:41.878Z,8.50
2018-09-02T02:45:11.162Z,8.27
2018-09-02T02:47:39.393Z,8.60
2018-09-02T02:50:07.537Z,9.07
2018-09-02T02:52:43.749Z,8.37
2018-09-02T02:55:12.321Z,8.90
2018-09-02T02:57:40.730Z,8.53
2018-09-02T03:00:09.130Z,8.57
2018-09-02T03:02:38.022Z,8.20
2018-09-02T03:05:06.510Z,7.57
2018-09-02T03:07:35.761Z,7.13
2018-09-02T03:10:04.109Z,7.43
2018-09-02T03:12:32.574Z,7.67
2018-09-02T03:15:01.022Z,8.40
2018-09-02T03:17:29.291Z,8.67
2018-09-02T03:19:58.241Z,9.20
2018-09-02T03:22:27.502Z,8.97
2018-09-02T03:24:56.266Z,8.87
2018-09-02T03:27:24.753Z,9.17
2018-09-02T03:29:52.826Z,8.40
2018-09-02T03:32:20.937Z,7.83
2018-09-02T03:34:50.546Z,7.87
2018-09-02T03:37:19.370Z,7.47
2018-09-02T03:39:47.445Z,7.90
2018-09-02T03:42:15.985Z,8.13
2018-09-02T03:44:44.334Z,7.67
2018-09-02T03:47:12.435Z,7.17
2018-09-02T03:49:41.327Z,6.47
2018-09-02T03:52:10.145Z,6.83
2018-09-02T03:54:38.597Z,6.37
2018-09-02T03:57:07.098Z,7.30
2018-09-02T03:59:35.154Z,8.37
2018-09-02T04:02:03.806Z,7.60
2018-09-02T04:04:32.301Z,7.30
2018-09-02T04:07:00.601Z,7.70
2018-09-02T04:09:28.705Z,8.03
2018-09-02T04:11:58.479Z,8.07
2018-09-02T04:14:27.077Z,7.73
2018-09-02T04:16:55.269Z,7.60
2018-09-02T04:19:23.965Z,7.40
2018-09-02T04:23:16.580Z,7.40
2018-09-02T04:25:44.862Z,7.13
2018-09-02T04:28:14.639Z,7.97
2018-09-02T04:30:43.500Z,7.30
2018-09-02T04:33:11.902Z,8.17
2018-09-02T04:35:40.974Z,7.53
2018-09-02T04:38:09.077Z,7.83
2018-09-02T04:40:38.853Z,8.83
2018-09-02T04:43:07.823Z,9.33
2018-09-02T04:45:35.941Z,8.97
2018-09-02T04:48:05.193Z,9.47
2018-09-02T04:50:34.097Z,9.10
2018-09-02T04:53:02.997Z,9.30
2018-09-02T05:02:29.163Z,9.00
2018-09-02T05:04:58.737Z,10.43
2018-09-02T05:07:27.967Z,10.07
2018-09-02T05:09:57.539Z,9.33
2018-09-02T05:12:26.021Z,9.20
2018-09-02T05:14:54.597Z,8.90
2018-09-02T05:17:25.902Z,9.33
2018-09-02T05:19:55.202Z,9.00
2018-09-02T05:22:23.306Z,8.23
2018-09-02T05:24:51.469Z,8.20
2018-09-02T05:27:20.249Z,7.50
2018-09-02T05:29:50.014Z,8.33
2018-09-02T05:32:18.517Z,9.17
2018-09-02T05:34:47.361Z,8.50
2018-09-02T05:37:17.186Z,9.10
2018-09-02T05:39:46.082Z,8.87
2018-09-02T05:42:14.319Z,9.07
2018-09-02T05:44:43.910Z,9.20
2018-09-02T05:47:13.061Z,9.43
2018-09-02T05:49:42.294Z,8.90
2018-09-02T05:52:11.034Z,9.60
2018-09-02T05:54:39.156Z,9.17
2018-09-02T05:57:07.873Z,8.43
2018-09-02T05:59:35.989Z,7.97
2018-09-02T06:02:04.746Z,7.90
2018-09-02T06:04:33.938Z,7.70
2018-09-02T06:07:02.929Z,6.40
2018-09-02T06:09:32.419Z,6.23
2018-09-02T06:12:01.896Z,7.10
2018-09-02T06:14:30.581Z,7.80
2018-09-02T06:16:58.823Z,7.60
2018-09-02T06:19:27.525Z,9.10
2018-09-02T06:21:56.334Z,9.13
2018-09-02T06:24:25.373Z,8.73
2018-09-02T06:26:55.061Z,9.67
2018-09-02T06:29:23.217Z,9.97
2018-09-02T06:31:51.906Z,9.90
2018-09-02T06:34:20.008Z,10.47
2018-09-02T06:36:48.995Z,9.97
2018-09-02T06:39:17.569Z,9.58
2018-09-02T06:41:46.057Z,8.73
2018-09-02T06:44:14.834Z,9.23
2018-09-02T06:46:43.996Z,8.48
2018-09-02T06:49:12.865Z,7.28
2018-09-02T06:51:41.493Z,6.65
2018-09-02T06:54:09.886Z,5.95
2018-09-02T06:56:39.058Z,5.50
2018-09-02T06:59:07.403Z,5.67
2018-09-02T07:01:35.510Z,5.80
2018-09-02T07:04:04.726Z,5.70
2018-09-02T07:06:33.548Z,6.47
2018-09-02T07:09:01.817Z,5.42
2018-09-02T07:11:30.221Z,5.05
2018-09-02T07:13:59.069Z,5.53
2018-09-02T07:16:28.893Z,5.72
2018-09-02T07:18:57.061Z,4.78
2018-09-02T07:21:25.517Z,5.45
2018-09-02T07:23:54.964Z,5.95
2018-09-02T07:26:23.837Z,5.25
2018-09-02T07:28:53.012Z,5.53
2018-09-02T07:31:22.049Z,5.10
2018-09-02T07:33:50.649Z,4.97
2018-09-02T07:36:19.678Z,4.95
2018-09-02T07:38:52.914Z,5.20
2018-09-02T07:41:22.422Z,4.85
2018-09-02T07:43:51.628Z,4.58
2018-09-02T07:46:19.593Z,5.12
2018-09-02T07:48:47.875Z,5.60
2018-09-02T07:51:16.026Z,5.22
2018-09-02T07:53:44.408Z,5.55
2018-09-02T07:56:13.103Z,5.28
2018-09-02T07:58:41.177Z,5.22
2018-09-02T08:01:09.513Z,4.80
2018-09-02T08:03:37.736Z,5.30
2018-09-02T08:06:06.910Z,4.75
2018-09-02T08:08:35.125Z,5.05
2018-09-02T08:11:04.089Z,5.55
2018-09-02T08:13:32.790Z,5.28
2018-09-02T08:16:01.653Z,5.28
2018-09-02T08:18:30.418Z,5.28
2018-09-02T08:20:59.333Z,5.15
2018-09-02T08:23:27.431Z,5.15
2018-09-02T08:25:55.945Z,4.92
2018-09-02T08:28:24.929Z,4.60
2018-09-02T08:30:54.161Z,4.97
2018-09-02T08:33:24.200Z,4.30
2018-09-02T08:35:52.401Z,5.15
2018-09-02T08:38:20.821Z,5.05
2018-09-02T08:40:48.933Z,4.37
2018-09-02T08:43:18.882Z,4.47
2018-09-02T08:45:47.313Z,5.10
2018-09-02T08:48:15.383Z,5.05
2018-09-02T08:50:44.766Z,4.87
2018-09-02T08:53:13.517Z,4.42
2018-09-02T08:55:41.734Z,4.97
2018-09-02T08:58:09.853Z,4.20
2018-09-02T09:00:39.118Z,4.70
2018-09-02T09:03:07.745Z,4.83
2018-09-02T09:05:36.104Z,4.00
2018-09-02T09:08:04.798Z,3.67
2018-09-02T09:10:33.738Z,4.58
2018-09-02T09:13:01.907Z,4.17
2018-09-02T09:15:30.015Z,4.05
2018-09-02T09:17:59.676Z,3.62
2018-09-02T09:20:28.798Z,3.62
2018-09-02T09:22:57.955Z,3.65
2018-09-02T09:25:26.042Z,3.27
2018-09-02T09:27:54.219Z,3.25
2018-09-02T09:30:22.841Z,3.33
2018-09-02T09:32:51.463Z,3.52
2018-09-02T09:35:20.733Z,3.40
2018-09-02T09:37:48.975Z,3.37
2018-09-02T09:40:18.771Z,2.77
2018-09-02T09:42:47.463Z,2.72
2018-09-02T09:45:16.515Z,2.92
2018-09-02T09:47:45.333Z,2.58
2018-09-02T09:50:13.449Z,2.50
2018-09-02T09:52:42.537Z,2.30
2018-09-02T09:55:11.350Z,2.27
2018-09-02T09:57:39.434Z,2.42
2018-09-02T10:00:07.838Z,2.67
2018-09-02T10:02:36.009Z,2.65
2018-09-02T10:05:05.320Z,2.00
2018-09-02T10:07:34.039Z,2.72
2018-09-02T10:10:02.274Z,2.10
2018-09-02T10:12:31.285Z,2.52
2018-09-02T10:14:59.854Z,2.47
2018-09-02T10:17:28.422Z,2.10
2018-09-02T10:19:57.325Z,1.80
2018-09-02T10:22:25.428Z,2.40
2018-09-02T10:24:53.821Z,2.10
2018-09-02T10:27:22.467Z,2.00
2018-09-02T10:29:51.370Z,2.20
2018-09-02T10:32:19.935Z,2.25
2018-09-02T10:34:48.359Z,2.27
2018-09-02T10:37:16.752Z,2.35
2018-09-02T10:39:46.006Z,2.02
2018-09-02T10:42:15.199Z,2.10
2018-09-02T10:44:44.125Z,2.10
2018-09-02T10:47:13.034Z,2.00
2018-09-02T10:49:43.502Z,2.12
2018-09-02T10:52:12.069Z,1.82
2018-09-02T10:54:40.729Z,1.85
2018-09-02T10:57:08.853Z,1.95
2018-09-02T10:59:37.159Z,1.90
2018-09-02T11:02:05.924Z,1.82
2018-09-02T11:04:34.853Z,2.17
2018-09-02T11:07:04.077Z,1.85
2018-09-02T11:09:33.222Z,2.08
2018-09-02T11:12:02.003Z,2.10
2018-09-02T11:14:30.814Z,1.87
2018-09-02T11:16:59.225Z,1.95
2018-09-02T11:19:28.476Z,2.37
2018-09-02T11:21:57.277Z,1.87
2018-09-02T11:24:25.780Z,2.22
2018-09-02T11:26:54.354Z,1.95
2018-09-02T11:29:22.913Z,1.90
2018-09-02T11:31:51.192Z,2.10
2018-09-02T11:34:19.473Z,1.98
2018-09-02T11:36:48.393Z,1.90
2018-09-02T11:39:16.957Z,1.87
2018-09-02T11:41:45.125Z,2.05
2018-09-02T11:44:13.671Z,1.90
2018-09-02T11:46:42.144Z,2.20
2018-09-02T11:49:10.457Z,2.00
2018-09-02T11:51:39.433Z,2.17
2018-09-02T11:54:08.594Z,1.95
2018-09-02T11:56:37.650Z,1.90
2018-09-02T11:59:06.608Z,2.08
2018-09-02T12:01:35.469Z,1.80
2018-09-02T12:04:04.413Z,1.85
2018-09-02T12:06:33.297Z,2.08
2018-09-02T12:09:01.826Z,1.85
2018-09-02T12:11:30.062Z,2.50
2018-09-02T12:13:59.356Z,2.25
2018-09-02T12:16:27.394Z,2.05
2018-09-02T12:18:55.525Z,2.08
2018-09-02T12:21:24.313Z,1.95
2018-09-02T12:23:52.533Z,1.90
2018-09-02T12:26:20.673Z,1.52
2018-09-02T12:28:50.081Z,1.82
2018-09-02T12:31:19.125Z,1.72
2018-09-02T12:33:47.169Z,1.92
2018-09-02T12:36:16.878Z,1.90
2018-09-02T12:38:45.858Z,1.90
2018-09-02T12:41:14.849Z,1.62
2018-09-02T12:43:43.029Z,1.90
2018-09-02T12:46:11.390Z,1.90
2018-09-02T12:48:39.614Z,1.62
2018-09-02T12:52:12.473Z,1.82
2018-09-02T12:54:41.278Z,1.40
2018-09-02T12:57:09.364Z,1.70
2018-09-02T12:59:38.453Z,1.47
2018-09-02T13:02:07.002Z,1.60
2018-09-02T13:04:36.509Z,1.40
2018-09-02T13:07:04.987Z,1.25
2018-09-02T13:09:34.136Z,1.72
2018-09-02T13:12:02.169Z,1.45
2018-09-02T13:14:31.065Z,1.40
2018-09-02T13:16:59.322Z,1.40
2018-09-02T13:19:29.055Z,1.70
2018-09-02T13:21:58.090Z,1.47
2018-09-02T13:24:26.226Z,1.65
2018-09-02T13:26:55.237Z,1.37
2018-09-02T13:29:24.533Z,1.42
2018-09-02T13:31:52.937Z,1.27
2018-09-02T13:34:21.101Z,1.00
2018-09-02T13:36:51.012Z,1.12
2018-09-02T13:39:20.030Z,1.10
2018-09-02T13:41:48.233Z,1.50
2018-09-02T13:44:16.442Z,1.30
2018-09-02T13:46:45.054Z,1.20
2018-09-02T13:49:13.172Z,1.40
2018-09-02T13:51:42.585Z,1.80
2018-09-02T13:54:12.373Z,1.25
2018-09-02T13:56:41.922Z,1.50
2018-09-02T13:59:10.284Z,1.57
2018-09-02T14:01:38.581Z,1.35
2018-09-02T14:04:06.653Z,1.42
2018-09-02T14:06:35.573Z,1.27
2018-09-02T14:09:05.289Z,1.60
2018-09-02T14:11:33.386Z,1.42
2018-09-02T14:14:02.315Z,1.25
2018-09-02T14:16:30.430Z,1.42
2018-09-02T14:18:59.054Z,1.82
2018-09-02T14:21:27.132Z,2.08
2018-09-02T14:23:55.357Z,1.98
2018-09-02T14:26:23.440Z,1.95
2018-09-02T14:28:53.069Z,1.65
2018-09-02T14:31:22.160Z,1.87
2018-09-02T14:33:51.273Z,2.08
2018-09-02T14:36:20.306Z,1.87
2018-09-02T14:39:52.446Z,2.30
2018-09-02T14:42:21.541Z,1.92
2018-09-02T14:44:49.978Z,1.90
2018-09-02T14:47:18.127Z,1.98
2018-09-02T14:49:46.201Z,2.20
2018-09-02T14:52:14.744Z,2.00
2018-09-02T14:54:42.959Z,2.00
2018-09-02T14:57:11.165Z,1.85
2018-09-02T14:59:39.585Z,2.05
2018-09-02T15:02:08.230Z,1.98
2018-09-02T15:04:36.365Z,1.87
2018-09-02T15:07:05.614Z,1.77
2018-09-02T15:09:34.225Z,1.72
2018-09-02T15:12:02.435Z,1.62
2018-09-02T15:14:31.023Z,1.87
2018-09-02T15:16:59.165Z,1.55
2018-09-02T15:19:27.397Z,1.75
2018-09-02T15:21:55.670Z,2.00
2018-09-02T15:24:24.978Z,2.20
2018-09-02T15:26:53.761Z,1.60
2018-09-02T15:29:22.620Z,1.75
2018-09-02T15:31:51.099Z,1.80
2018-09-02T15:34:19.545Z,1.92
2018-09-02T15:36:48.602Z,1.90
2018-09-02T15:39:17.624Z,1.98
2018-09-02T15:41:46.505Z,1.85
2018-09-02T15:44:14.729Z,1.98
2018-09-02T15:46:44.147Z,1.90
2018-09-02T15:49:12.301Z,1.98
2018-09-02T15:51:40.702Z,2.20
2018-09-02T15:54:09.493Z,1.90
2018-09-02T15:56:39.320Z,1.90
2018-09-02T15:59:07.595Z,1.80
2018-09-02T16:01:36.046Z,1.98
2018-09-02T16:04:04.614Z,2.10
2018-09-02T16:06:33.850Z,1.90
2018-09-02T16:09:01.997Z,1.62
2018-09-02T16:11:30.090Z,1.98
2018-09-02T16:13:58.245Z,1.90
2018-09-02T16:16:26.870Z,2.05
2018-09-02T16:18:55.643Z,2.02
2018-09-02T16:21:24.635Z,2.00
2018-09-02T16:23:52.969Z,1.90
2018-09-02T16:27:51.093Z,1.95
2018-09-02T16:30:19.735Z,1.70
2018-09-02T16:32:48.075Z,1.92
2018-09-02T16:35:17.621Z,2.22
2018-09-02T16:37:46.482Z,2.22
2018-09-02T16:40:15.245Z,1.90
2018-09-02T16:42:43.651Z,1.50
2018-09-02T16:45:12.566Z,1.60
2018-09-02T16:47:40.656Z,1.75
2018-09-02T16:50:08.927Z,1.67
2018-09-02T16:52:36.996Z,1.80
2018-09-02T16:55:05.570Z,1.90
2018-09-02T16:57:34.745Z,1.80
2018-09-02T17:00:02.972Z,1.72
2018-09-02T17:02:31.282Z,1.80
2018-09-02T17:05:10.317Z,1.77
2018-09-02T17:07:38.687Z,1.90
2018-09-02T17:10:07.425Z,1.80
2018-09-02T17:12:35.727Z,1.98
2018-09-02T17:15:04.297Z,1.90
2018-09-02T17:17:33.166Z,1.82
2018-09-02T17:20:01.465Z,2.00
2018-09-02T17:22:29.685Z,1.80
2018-09-02T17:24:57.999Z,1.98
2018-09-02T17:27:26.117Z,2.20
2018-09-02T17:29:54.541Z,2.00
2018-09-02T17:32:23.405Z,2.12
2018-09-02T17:34:51.517Z,1.92
2018-09-02T17:37:20.566Z,2.30
2018-09-02T17:39:48.739Z,2.00
2018-09-02T17:42:17.054Z,2.12
2018-09-02T17:44:45.155Z,2.30
2018-09-02T17:47:13.945Z,1.80
2018-09-02T17:49:42.752Z,1.92
2018-09-02T17:52:10.817Z,2.80
2018-09-02T17:54:38.897Z,2.95
2018-09-02T17:57:07.417Z,2.47
2018-09-02T17:59:36.163Z,2.55
2018-09-02T18:02:04.323Z,2.37
2018-09-02T18:04:32.452Z,3.27
2018-09-02T18:07:00.787Z,2.90
2018-09-02T18:09:29.834Z,2.77
2018-09-02T18:11:59.097Z,2.60
2018-09-02T18:14:27.292Z,2.65
2018-09-02T18:16:55.645Z,2.83
2018-09-02T18:19:24.181Z,2.70
2018-09-02T18:21:52.739Z,2.62
2018-09-02T18:24:21.782Z,2.98
2018-09-02T18:26:50.064Z,2.67
2018-09-02T18:29:18.510Z,2.92
2018-09-02T18:31:47.273Z,2.83
2018-09-02T18:34:15.549Z,2.70
2018-09-02T18:36:44.110Z,3.08
2018-09-02T18:39:12.840Z,2.80
2018-09-02T18:41:41.117Z,2.98
2018-09-02T18:44:09.423Z,3.00
2018-09-02T18:46:37.628Z,2.85
2018-09-02T18:49:06.469Z,3.00
2018-09-02T18:51:35.967Z,3.40
2018-09-02T18:54:04.445Z,3.15
2018-09-02T18:56:33.426Z,3.10
2018-09-02T18:59:02.422Z,3.00
2018-09-02T19:01:30.774Z,3.12
2018-09-02T19:03:59.177Z,3.30
2018-09-02T19:06:27.285Z,3.15
2018-09-02T19:08:56.257Z,3.30
2018-09-02T19:11:24.657Z,3.33
2018-09-02T19:13:52.829Z,3.33
2018-09-02T19:16:21.314Z,3.27
2018-09-02T19:18:49.738Z,3.47
2018-09-02T19:21:19.194Z,3.60
2018-09-02T19:24:50.421Z,3.25
2018-09-02T19:27:19.237Z,3.62
2018-09-02T19:29:47.421Z,3.35
2018-09-02T19:32:15.433Z,3.83
2018-09-02T19:34:43.739Z,4.10
2018-09-02T19:37:11.869Z,4.08
2018-09-02T19:39:40.904Z,3.95
2018-09-02T19:42:09.768Z,3.90
2018-09-02T19:44:37.992Z,4.20
2018-09-02T19:47:06.554Z,4.45
2018-09-02T19:49:34.711Z,4.60
2018-09-02T19:52:03.637Z,4.37
2018-09-02T19:54:32.005Z,4.42
2018-09-02T19:57:03.198Z,4.47
2018-09-02T19:59:35.233Z,4.50
2018-09-02T20:02:10.607Z,4.40
2018-09-02T20:04:45.390Z,4.42
2018-09-02T20:07:19.134Z,5.15
2018-09-02T20:09:55.013Z,4.87
2018-09-02T20:12:29.689Z,5.90
2018-09-02T20:15:13.363Z,6.00
2018-09-02T20:17:44.525Z,6.20
2018-09-02T20:20:18.437Z,6.05
2018-09-02T20:27:47.397Z,5.25
2018-09-02T20:30:22.601Z,5.92
2018-09-02T20:33:04.018Z,6.83
2018-09-02T20:35:37.716Z,6.70
2018-09-02T20:38:10.717Z,7.47
2018-09-02T20:40:48.750Z,7.95
2018-09-02T20:43:26.621Z,8.10
2018-09-02T20:46:02.093Z,8.20
2018-09-02T20:48:36.641Z,7.90
2018-09-02T20:51:12.772Z,8.93
2018-09-02T20:53:50.021Z,9.25
2018-09-02T20:59:04.339Z,8.15
2018-09-02T21:01:41.129Z,9.10
2018-09-02T21:04:20.105Z,9.78
2018-09-02T21:06:53.370Z,8.38
2018-09-02T21:09:25.903Z,7.90
2018-09-02T21:11:58.973Z,7.90
2018-09-02T21:14:37.711Z,7.45
2018-09-02T21:17:17.334Z,6.58
2018-09-02T21:19:59.324Z,6.45
2018-09-02T21:22:32.391Z,6.83
2018-09-02T21:25:06.760Z,6.45
2018-09-02T21:27:40.753Z,6.03
2018-09-02T21:30:15.344Z,5.72
2018-09-02T21:32:48.526Z,5.53
2018-09-02T21:35:22.699Z,6.05
2018-09-02T21:37:55.792Z,5.42
2018-09-02T21:40:34.029Z,5.95
2018-09-02T21:43:11.576Z,5.65
2018-09-02T21:45:46.069Z,5.70
2018-09-02T21:48:23.500Z,5.25
2018-09-02T21:51:04.961Z,5.72
2018-09-02T21:53:44.039Z,5.37
2018-09-02T21:56:22.805Z,5.35
2018-09-02T21:58:56.011Z,4.95
2018-09-02T22:01:29.694Z,4.95
2018-09-02T22:04:03.709Z,5.12
2018-09-02T22:06:39.185Z,4.80
2018-09-02T22:09:18.173Z,4.78
2018-09-02T22:11:52.655Z,5.08
2018-09-02T22:14:33.194Z,4.90
2018-09-02T22:17:06.493Z,5.17
2018-09-02T22:19:38.140Z,4.62
2018-09-02T22:22:23.298Z,5.45
2018-09-02T22:24:57.001Z,4.53
2018-09-02T22:27:40.481Z,4.78
2018-09-02T22:30:17.898Z,4.83
2018-09-02T22:32:50.828Z,5.60
2018-09-02T22:35:28.151Z,4.58
2018-09-02T22:38:06.713Z,4.72
2018-09-02T22:40:42.121Z,5.90
2018-09-02T22:43:19.123Z,5.12
2018-09-02T22:45:51.334Z,5.40
2018-09-02T22:48:29.848Z,4.83
2018-09-02T22:51:02.972Z,4.62
2018-09-02T22:53:41.892Z,4.83
2018-09-02T22:56:18.098Z,4.80
2018-09-02T22:59:04.848Z,5.12
2018-09-02T23:01:42.813Z,4.70
2018-09-02T23:04:18.402Z,4.80
2018-09-02T23:06:51.438Z,5.08
2018-09-02T23:09:27.967Z,5.10
2018-09-02T23:12:03.549Z,4.67
2018-09-02T23:14:44.268Z,4.60
2018-09-02T23:17:28.995Z,4.70
2018-09-02T23:20:07.431Z,5.08
2018-09-02T23:22:40.875Z,4.70
2018-09-02T23:25:16.083Z,5.60
2018-09-02T23:27:50.473Z,5.08
2018-09-02T23:30:24.946Z,4.50
2018-09-02T23:33:01.545Z,5.10
2018-09-02T23:35:37.687Z,5.22
2018-09-02T23:38:17.426Z,5.20
2018-09-02T23:40:50.472Z,5.22
2018-09-02T23:43:26.179Z,5.42
2018-09-02T23:46:02.694Z,4.55
2018-09-02T23:48:41.160Z,5.35
2018-09-02T23:51:17.916Z,5.65
2018-09-02T23:56:36.680Z,5.28
2018-09-02T23:59:11.412Z,4.58
